Time;durP1;ratioP1;P1;durP2;ratioP2;P2;SDS_P1;SDS_P2;PMS_P1;PMS_P2;Temp;Humidity;BMP_temperature;BMP_pressure;BME280_temperature;BME280_humidity;BME280_pressure;Samples;Min_cycle;Max_cycle;Signal;HPM_P1;HPM_P2
2020/12/11 00:01:59;;;;;;;2.63;1.00;;;3.80;94.60;;;;;;4101705;28;20055;-89
2020/12/11 00:04:01;;;;;;;2.42;0.50;;;3.90;94.60;;;;;;4101161;28;20510;-87
2020/12/11 00:06:02;;;;;;;1.30;0.85;;;3.90;94.70;;;;;;4101791;28;20055;-87
2020/12/11 00:08:03;;;;;;;0.70;0.68;;;3.80;94.60;;;;;;4117237;28;20059;-86
2020/12/11 00:10:05;;;;;;;0.65;0.50;;;3.80;94.80;;;;;;4101309;29;20062;-87
2020/12/11 00:12:06;;;;;;;0.32;0.30;;;3.80;94.70;;;;;;4101084;28;20062;-86
2020/12/11 00:14:07;;;;;;;0.30;0.30;;;3.80;94.70;;;;;;4100893;28;20043;-87
2020/12/11 00:16:09;;;;;;;5.82;1.45;;;3.90;94.70;;;;;;4117342;28;20063;-87
2020/12/11 00:18:10;;;;;;;0.73;0.45;;;3.80;94.60;;;;;;4101664;28;20055;-87
2020/12/11 00:20:11;;;;;;;0.88;0.88;;;3.90;94.50;;;;;;4100694;29;20047;-86
2020/12/11 00:22:14;;;;;;;2.63;1.42;;;3.90;94.80;;;;;;4117240;28;20486;-86
2020/12/11 00:24:15;;;;;;;3.55;0.80;;;3.90;94.80;;;;;;4101809;28;20574;-86
2020/12/11 00:26:17;;;;;;;0.70;0.40;;;3.90;94.70;;;;;;4101288;28;20535;-86
2020/12/11 00:28:18;;;;;;;0.40;0.40;;;4.00;94.70;;;;;;4100993;28;20077;-87
2020/12/11 00:30:20;;;;;;;2.20;0.93;;;3.90;94.70;;;;;;4085348;29;20059;-87
2020/12/11 00:32:22;;;;;;;0.30;0.30;;;3.90;94.70;;;;;;4085619;28;20072;-87
2020/12/11 00:34:24;;;;;;;2.25;2.15;;;4.00;94.10;;;;;;4100850;28;20062;-87
2020/12/11 00:36:26;;;;;;;2.83;1.83;;;3.90;94.20;;;;;;4101535;28;20066;-88
2020/12/11 00:38:29;;;;;;;0.77;0.77;;;3.90;94.20;;;;;;4116861;28;20046;-87
2020/12/11 00:40:32;;;;;;;1.15;1.05;;;3.90;94.40;;;;;;4101333;28;20143;-88
2020/12/11 00:42:43;;;;;;;2.38;1.02;;;3.90;94.40;;;;;;4102672;28;20063;-87
2020/12/11 00:44:45;;;;;;;2.25;0.98;;;3.90;94.40;;;;;;4100564;28;20066;-87
2020/12/11 00:46:46;;;;;;;0.38;0.38;;;3.90;94.30;;;;;;4100653;28;20051;-87
2020/12/11 00:48:47;;;;;;;1.50;0.85;;;3.90;94.40;;;;;;4084889;29;20055;-87
2020/12/11 00:50:49;;;;;;;1.33;1.23;;;3.90;94.40;;;;;;4084704;29;20055;-87
2020/12/11 00:52:51;;;;;;;1.50;1.40;;;3.90;94.30;;;;;;4100546;28;20051;-88
2020/12/11 00:54:52;;;;;;;0.40;0.40;;;3.90;94.30;;;;;;4085436;29;20047;-87
2020/12/11 00:56:54;;;;;;;0.22;0.22;;;3.90;94.00;;;;;;4100244;28;20051;-87
2020/12/11 00:58:55;;;;;;;0.80;0.40;;;3.90;94.00;;;;;;4100402;28;20053;-87
2020/12/11 01:00:56;;;;;;;1.42;0.98;;;3.90;94.10;;;;;;4101194;28;20059;-87
2020/12/11 01:02:58;;;;;;;1.42;1.02;;;3.90;94.30;;;;;;4115890;28;20051;-87
2020/12/11 01:04:59;;;;;;;0.40;0.40;;;3.80;94.20;;;;;;4076641;29;20056;-87
2020/12/11 01:07:00;;;;;;;1.10;0.88;;;3.80;94.30;;;;;;4084840;29;20050;-88
2020/12/11 01:09:03;;;;;;;0.95;0.70;;;3.80;94.40;;;;;;4100668;29;20066;-87
2020/12/11 01:11:04;;;;;;;1.10;0.57;;;3.90;94.20;;;;;;4116265;28;20510;-88
2020/12/11 01:13:05;;;;;;;1.77;1.20;;;3.90;94.20;;;;;;4100772;28;20061;-87
2020/12/11 01:15:06;;;;;;;0.45;0.45;;;3.90;94.00;;;;;;4084882;29;20062;-87
2020/12/11 01:17:08;;;;;;;1.15;0.80;;;3.80;94.00;;;;;;4115855;28;20488;-88
2020/12/11 01:19:09;;;;;;;0.98;0.90;;;3.90;93.70;;;;;;4100804;28;20058;-88
2020/12/11 01:21:10;;;;;;;1.75;1.20;;;3.90;93.30;;;;;;4084837;29;20068;-87
2020/12/11 01:23:12;;;;;;;2.55;0.82;;;3.80;93.30;;;;;;4099716;28;20051;-88
2020/12/11 01:25:13;;;;;;;1.95;0.82;;;3.90;93.10;;;;;;4100337;28;20063;-87
2020/12/11 01:27:14;;;;;;;2.75;1.40;;;3.90;92.90;;;;;;4084679;29;20056;-88
2020/12/11 01:29:16;;;;;;;0.40;0.40;;;3.90;92.70;;;;;;4100032;28;20518;-88
2020/12/11 01:31:18;;;;;;;1.30;0.93;;;3.80;92.60;;;;;;4100584;28;20066;-88
2020/12/11 01:33:20;;;;;;;0.43;0.38;;;3.90;92.70;;;;;;4100262;28;20050;-88
2020/12/11 01:35:21;;;;;;;0.60;0.60;;;3.90;92.60;;;;;;4084121;29;20047;-88
2020/12/11 01:37:24;;;;;;;1.23;1.08;;;3.80;92.80;;;;;;4116228;28;20078;-88
2020/12/11 01:39:25;;;;;;;0.80;0.35;;;3.90;92.60;;;;;;4105023;28;20055;-88
2020/12/11 01:41:27;;;;;;;0.45;0.40;;;3.90;92.40;;;;;;4084392;29;20078;-88
2020/12/11 01:43:28;;;;;;;1.00;0.73;;;3.90;92.90;;;;;;4099571;28;20051;-87
2020/12/11 01:45:29;;;;;;;2.45;0.75;;;3.90;92.60;;;;;;4095804;29;20134;-88
2020/12/11 01:47:31;;;;;;;0.70;0.47;;;3.90;92.50;;;;;;4083733;29;20057;-88
2020/12/11 01:49:32;;;;;;;2.53;1.50;;;3.80;92.60;;;;;;4116203;28;20042;-87
2020/12/11 01:51:34;;;;;;;2.95;0.98;;;3.90;92.50;;;;;;4084308;29;20055;-88
2020/12/11 01:53:36;;;;;;;0.38;0.30;;;3.80;92.40;;;;;;4117844;28;20085;-87
2020/12/11 01:55:38;;;;;;;1.20;0.63;;;3.90;92.60;;;;;;4104042;28;20055;-88
2020/12/11 01:57:53;;;;;;;2.80;1.05;;;3.80;92.60;;;;;;4104914;28;20193;-88
2020/12/11 01:59:55;;;;;;;0.85;0.68;;;3.90;92.50;;;;;;4118968;28;20437;-87
2020/12/11 02:01:57;;;;;;;1.05;0.63;;;3.90;92.50;;;;;;4083998;29;20057;-88
2020/12/11 02:03:59;;;;;;;0.63;0.55;;;3.80;92.60;;;;;;4099503;28;20146;-88
2020/12/11 02:06:00;;;;;;;1.13;1.00;;;3.80;92.60;;;;;;4100505;29;20135;-87
2020/12/11 02:08:01;;;;;;;1.60;1.50;;;3.80;92.70;;;;;;4115541;28;20038;-87
2020/12/11 02:10:02;;;;;;;1.25;1.15;;;3.80;92.60;;;;;;4083657;29;20052;-87
2020/12/11 02:12:04;;;;;;;2.67;1.02;;;3.70;92.80;;;;;;4083800;29;20059;-87
2020/12/11 02:14:05;;;;;;;4.13;1.38;;;3.70;93.00;;;;;;4083422;29;20432;-87
2020/12/11 02:16:06;;;;;;;2.92;2.05;;;3.60;93.00;;;;;;4099276;29;20055;-87
2020/12/11 02:18:08;;;;;;;0.90;0.35;;;3.70;92.90;;;;;;4084119;29;20056;-87
2020/12/11 02:20:09;;;;;;;1.15;0.82;;;3.70;92.90;;;;;;4115518;28;20065;-87
2020/12/11 02:22:10;;;;;;;1.42;0.60;;;3.70;92.90;;;;;;4099660;29;20055;-88
2020/12/11 02:24:15;;;;;;;0.98;0.80;;;3.70;93.00;;;;;;4098669;28;20069;-88
2020/12/11 02:26:16;;;;;;;1.38;0.90;;;3.70;93.00;;;;;;4099849;28;20047;-87
2020/12/11 02:28:18;;;;;;;0.47;0.38;;;3.70;92.90;;;;;;4099347;28;20570;-88
2020/12/11 02:30:19;;;;;;;3.72;0.55;;;3.70;92.90;;;;;;4083708;29;20059;-87
2020/12/11 02:32:20;;;;;;;1.90;1.35;;;3.70;93.00;;;;;;4097112;28;20051;-88
2020/12/11 02:34:22;;;;;;;0.35;0.35;;;3.70;93.00;;;;;;4101933;28;20523;-87
2020/12/11 02:36:23;;;;;;;2.45;1.08;;;3.70;93.10;;;;;;4115933;28;20503;-87
2020/12/11 02:38:24;;;;;;;1.38;0.98;;;3.70;93.10;;;;;;4082939;29;20048;-87
2020/12/11 02:40:25;;;;;;;1.45;0.85;;;3.70;93.00;;;;;;4083683;29;20074;-87
2020/12/11 02:42:27;;;;;;;1.58;1.48;;;3.80;93.00;;;;;;4083315;29;20060;-87
2020/12/11 02:44:28;;;;;;;1.33;0.85;;;3.70;93.10;;;;;;4114292;28;20050;-87
2020/12/11 02:46:30;;;;;;;1.65;0.80;;;3.70;93.30;;;;;;4098878;28;20051;-87
2020/12/11 02:48:31;;;;;;;2.92;1.52;;;3.70;93.30;;;;;;4099489;28;20077;-87
2020/12/11 02:50:32;;;;;;;3.70;1.33;;;3.70;93.00;;;;;;4083172;29;20068;-88
2020/12/11 02:52:34;;;;;;;0.98;0.70;;;3.70;92.90;;;;;;4099071;29;20069;-87
2020/12/11 02:54:35;;;;;;;0.70;0.60;;;3.70;92.90;;;;;;4114973;28;20090;-88
2020/12/11 02:56:36;;;;;;;1.48;1.15;;;3.70;92.80;;;;;;4082861;29;20067;-87
2020/12/11 02:58:38;;;;;;;0.82;0.82;;;3.80;92.90;;;;;;4082863;29;20051;-87
2020/12/11 03:00:39;;;;;;;1.00;0.60;;;3.70;92.90;;;;;;4115491;28;20133;-87
2020/12/11 03:02:40;;;;;;;2.40;1.38;;;3.70;92.90;;;;;;4082623;29;20100;-88
2020/12/11 03:04:42;;;;;;;0.60;0.60;;;3.70;93.00;;;;;;4114581;28;20515;-88
2020/12/11 03:06:43;;;;;;;1.25;0.77;;;3.60;92.90;;;;;;4099028;28;20055;-87
2020/12/11 03:08:44;;;;;;;1.98;0.60;;;3.60;93.00;;;;;;4098145;28;20143;-88
2020/12/11 03:10:45;;;;;;;1.48;1.00;;;3.60;93.00;;;;;;4115008;28;20050;-88
2020/12/11 03:12:47;;;;;;;1.55;0.93;;;3.60;93.00;;;;;;4098914;28;20065;-88
2020/12/11 03:14:48;;;;;;;0.98;0.55;;;3.70;92.90;;;;;;4114511;28;20055;-87
2020/12/11 03:16:49;;;;;;;3.40;1.55;;;3.70;93.00;;;;;;4098662;28;20570;-87
2020/12/11 03:18:51;;;;;;;3.70;1.40;;;3.70;92.90;;;;;;4099031;28;20522;-87
2020/12/11 03:20:53;;;;;;;1.27;1.15;;;3.70;93.30;;;;;;4098839;28;20483;-88
2020/12/11 03:22:56;;;;;;;0.52;0.52;;;3.60;93.20;;;;;;4098588;28;20111;-88
2020/12/11 03:25:01;;;;;;;0.70;0.63;;;3.60;93.00;;;;;;4114391;28;20069;-87
2020/12/11 03:27:02;;;;;;;2.90;1.35;;;3.60;93.10;;;;;;4098288;28;20491;-88
2020/12/11 03:29:03;;;;;;;1.90;1.02;;;3.60;93.10;;;;;;4083049;29;20059;-87
2020/12/11 03:31:05;;;;;;;2.55;1.45;;;3.60;93.00;;;;;;4098668;29;20055;-87
2020/12/11 03:33:06;;;;;;;1.30;0.60;;;3.70;93.00;;;;;;4098882;28;20578;-87
2020/12/11 03:35:07;;;;;;;1.38;0.95;;;3.60;92.90;;;;;;4082780;29;20051;-87
2020/12/11 03:37:08;;;;;;;1.55;1.00;;;3.60;93.00;;;;;;4097782;28;20055;-88
2020/12/11 03:39:10;;;;;;;1.52;0.88;;;3.60;93.30;;;;;;4083643;28;20456;-88
2020/12/11 03:41:15;;;;;;;3.30;0.80;;;3.60;93.20;;;;;;4098338;28;20058;-87
2020/12/11 03:43:17;;;;;;;0.38;0.38;;;3.50;93.20;;;;;;4114431;28;20570;-87
2020/12/11 03:45:18;;;;;;;0.50;0.30;;;3.50;93.30;;;;;;4098562;28;20065;-87
2020/12/11 03:47:20;;;;;;;0.95;0.80;;;3.40;93.30;;;;;;4082019;29;20425;-87
2020/12/11 03:49:23;;;;;;;0.63;0.43;;;3.50;93.40;;;;;;4083356;28;20067;-87
2020/12/11 03:51:24;;;;;;;1.00;0.30;;;3.50;93.30;;;;;;4083256;29;20055;-87
2020/12/11 03:53:26;;;;;;;1.40;1.00;;;3.50;93.30;;;;;;4098535;28;20058;-88
2020/12/11 03:55:28;;;;;;;1.42;1.17;;;3.50;93.20;;;;;;4098574;28;20043;-88
2020/12/11 03:57:29;;;;;;;1.30;0.88;;;3.40;93.20;;;;;;4098948;29;20055;-88
2020/12/11 03:59:30;;;;;;;0.82;0.43;;;3.50;93.20;;;;;;4131581;28;20106;-87
2020/12/11 04:01:33;;;;;;;0.70;0.30;;;3.50;92.90;;;;;;4116442;28;20074;-88
2020/12/11 04:03:34;;;;;;;0.63;0.63;;;3.60;92.70;;;;;;4106799;28;20051;-87
2020/12/11 04:05:35;;;;;;;0.80;0.80;;;3.50;92.80;;;;;;4081918;29;20551;-87
2020/12/11 04:07:37;;;;;;;0.30;0.30;;;3.50;92.90;;;;;;4098375;28;20063;-88
2020/12/11 04:09:38;;;;;;;0.90;0.90;;;3.50;92.50;;;;;;4083057;29;20566;-88
2020/12/11 04:11:39;;;;;;;0.45;0.45;;;3.60;92.40;;;;;;4098240;28;20077;-87
2020/12/11 04:13:41;;;;;;;2.40;0.70;;;3.60;92.40;;;;;;4098056;28;20073;-88
2020/12/11 04:15:42;;;;;;;0.50;0.50;;;3.60;92.60;;;;;;4083445;29;20052;-87
2020/12/11 04:17:43;;;;;;;0.70;0.70;;;3.50;92.70;;;;;;4097802;28;20442;-87
2020/12/11 04:19:45;;;;;;;0.50;0.50;;;3.40;93.00;;;;;;4100677;28;20059;-88
2020/12/11 04:21:48;;;;;;;0.63;0.63;;;3.40;92.80;;;;;;4101642;28;20055;-87
2020/12/11 04:23:49;;;;;;;0.65;0.65;;;3.40;93.10;;;;;;4100156;28;20067;-87
2020/12/11 04:25:51;;;;;;;0.68;0.57;;;3.40;93.10;;;;;;4100594;28;20451;-88
2020/12/11 04:27:53;;;;;;;2.15;1.02;;;3.40;93.10;;;;;;4117409;28;20051;-87
2020/12/11 04:29:54;;;;;;;4.32;1.23;;;3.40;93.00;;;;;;4101398;28;20058;-87
2020/12/11 04:31:57;;;;;;;1.42;1.33;;;3.30;93.20;;;;;;4101141;28;20138;-88
2020/12/11 04:33:58;;;;;;;1.95;0.43;;;3.30;93.00;;;;;;4100888;29;20071;-88
2020/12/11 04:36:00;;;;;;;0.45;0.45;;;3.30;93.50;;;;;;4116591;28;20062;-88
2020/12/11 04:38:02;;;;;;;0.70;0.70;;;3.30;93.20;;;;;;4076899;29;20056;-87
2020/12/11 04:40:03;;;;;;;0.30;0.20;;;3.30;93.10;;;;;;4101587;28;20101;-87
2020/12/11 04:42:05;;;;;;;1.27;1.27;;;3.40;93.00;;;;;;4101166;29;20424;-87
2020/12/11 04:44:06;;;;;;;2.45;0.95;;;3.40;93.00;;;;;;4100689;28;20530;-87
2020/12/11 04:46:07;;;;;;;0.93;0.90;;;3.40;92.90;;;;;;4100952;28;20055;-87
2020/12/11 04:48:09;;;;;;;0.45;0.40;;;3.40;93.00;;;;;;4085393;28;20048;-88
2020/12/11 04:50:12;;;;;;;2.05;0.73;;;3.40;93.00;;;;;;4100734;28;20051;-88
2020/12/11 04:52:13;;;;;;;1.08;0.65;;;3.40;93.10;;;;;;4084770;29;20531;-87
2020/12/11 04:54:20;;;;;;;0.70;0.70;;;3.40;93.20;;;;;;4117182;28;20069;-89
2020/12/11 04:56:22;;;;;;;2.17;0.95;;;3.30;93.20;;;;;;4085522;28;20051;-89
2020/12/11 04:58:23;;;;;;;2.35;0.95;;;3.30;93.40;;;;;;4100311;28;20114;-88
2020/12/11 05:00:24;;;;;;;0.63;0.60;;;3.20;93.50;;;;;;4085223;29;20134;-89
2020/12/11 05:02:26;;;;;;;7.63;1.00;;;3.20;93.60;;;;;;4085109;29;20467;-89
2020/12/11 05:04:28;;;;;;;0.88;0.50;;;3.10;93.60;;;;;;4100656;28;20412;-88
2020/12/11 05:06:29;;;;;;;0.98;0.88;;;3.20;93.60;;;;;;4096829;29;20050;-89
2020/12/11 05:08:30;;;;;;;1.58;0.95;;;3.20;93.60;;;;;;4116836;28;20047;-89
2020/12/11 05:10:40;;;;;;;1.15;0.95;;;3.20;93.50;;;;;;4100861;28;20061;-88
2020/12/11 05:12:41;;;;;;;2.63;1.33;;;3.20;93.40;;;;;;4101333;28;20051;-89
2020/12/11 05:14:42;;;;;;;0.45;0.40;;;3.20;93.40;;;;;;4100546;28;20134;-88
2020/12/11 05:16:54;;;;;;;0.30;0.22;;;3.20;93.40;;;;;;4101040;28;20110;-88
2020/12/11 05:19:03;;;;;;;1.15;1.00;;;3.10;93.30;;;;;;4116971;28;20083;-88
2020/12/11 05:21:26;;;;;;;3.45;1.10;;;3.10;93.40;;;;;;4084918;29;20070;-87
2020/12/11 05:23:27;;;;;;;0.75;0.75;;;3.10;93.70;;;;;;4100346;28;20077;-88
2020/12/11 05:25:29;;;;;;;1.52;0.90;;;3.10;93.70;;;;;;4100126;28;20412;-88
2020/12/11 05:27:38;;;;;;;0.88;0.68;;;3.10;93.50;;;;;;4112512;28;20162;-88
2020/12/11 05:29:40;;;;;;;0.68;0.68;;;3.10;93.60;;;;;;4099563;28;20130;-88
2020/12/11 05:31:44;;;;;;;0.55;0.50;;;3.10;93.70;;;;;;4115628;28;20138;-88
2020/12/11 05:34:12;;;;;;;1.05;1.05;;;3.10;93.70;;;;;;4100978;29;20420;-88
2020/12/11 05:36:15;;;;;;;1.75;1.20;;;3.10;93.60;;;;;;4114912;28;20054;-88
2020/12/11 05:38:16;;;;;;;0.32;0.32;;;3.10;93.60;;;;;;4099434;28;20130;-88
2020/12/11 05:40:26;;;;;;;1.20;1.08;;;3.00;93.60;;;;;;4099889;28;20055;-88
2020/12/11 05:42:28;;;;;;;0.52;0.52;;;3.00;93.90;;;;;;4116126;28;20553;-88
2020/12/11 05:44:33;;;;;;;0.57;0.43;;;3.00;93.60;;;;;;4099924;29;20051;-88
2020/12/11 05:46:34;;;;;;;1.60;0.90;;;3.10;93.90;;;;;;4116333;28;20070;-88
2020/12/11 05:48:37;;;;;;;1.25;0.68;;;3.10;93.70;;;;;;4100705;28;20059;-88
2020/12/11 05:50:38;;;;;;;0.88;0.52;;;3.10;93.70;;;;;;4083996;28;20060;-88
2020/12/11 05:52:39;;;;;;;2.42;1.08;;;3.00;93.80;;;;;;4099918;28;20035;-88
2020/12/11 05:54:48;;;;;;;1.33;0.90;;;3.10;93.70;;;;;;4100236;28;20059;-88
2020/12/11 05:56:50;;;;;;;0.47;0.47;;;3.10;93.80;;;;;;4100098;28;20087;-88
2020/12/11 05:58:52;;;;;;;2.33;0.85;;;3.00;93.80;;;;;;4100491;28;20130;-88
2020/12/11 06:00:53;;;;;;;0.50;0.38;;;3.00;93.80;;;;;;4083785;29;20587;-88
2020/12/11 06:02:55;;;;;;;0.30;0.20;;;3.00;93.90;;;;;;4116042;28;20133;-88
2020/12/11 06:04:56;;;;;;;0.85;0.77;;;3.00;93.90;;;;;;4100369;28;20134;-88
2020/12/11 06:06:58;;;;;;;0.52;0.43;;;3.00;94.00;;;;;;4083943;29;20063;-87
2020/12/11 06:08:59;;;;;;;1.23;0.45;;;3.00;94.20;;;;;;4099523;28;20130;-88
2020/12/11 06:11:01;;;;;;;0.65;0.30;;;3.00;94.60;;;;;;4083704;29;20060;-88
2020/12/11 06:13:02;;;;;;;2.38;0.95;;;3.00;94.80;;;;;;4115480;28;20065;-88
2020/12/11 06:15:06;;;;;;;0.20;0.20;;;3.00;94.90;;;;;;4083583;29;20059;-88
2020/12/11 06:17:08;;;;;;;1.17;0.30;;;3.10;95.00;;;;;;4115530;28;20073;-88
2020/12/11 06:19:09;;;;;;;0.52;0.52;;;3.10;94.90;;;;;;4099396;28;20047;-88
2020/12/11 06:21:10;;;;;;;1.25;0.55;;;3.10;95.00;;;;;;4098859;28;20500;-88
2020/12/11 06:23:40;;;;;;;0.98;0.60;;;3.10;95.10;;;;;;4083370;29;20484;-88
2020/12/11 06:25:41;;;;;;;0.50;0.50;;;3.20;95.20;;;;;;4097873;28;20055;-88
2020/12/11 06:27:42;;;;;;;0.57;0.30;;;3.20;95.20;;;;;;4099347;28;20051;-88
2020/12/11 06:29:44;;;;;;;0.38;0.38;;;3.20;95.30;;;;;;4082850;29;20056;-88
2020/12/11 06:31:48;;;;;;;2.53;0.70;;;3.30;95.20;;;;;;4098721;29;20043;-88
2020/12/11 06:33:51;;;;;;;0.85;0.80;;;3.30;94.80;;;;;;4099605;29;20062;-89
2020/12/11 06:35:57;;;;;;;0.30;0.30;;;3.40;94.70;;;;;;4083833;28;20134;-88
2020/12/11 06:37:58;;;;;;;1.08;0.95;;;3.40;94.70;;;;;;4098478;29;20059;-87
2020/12/11 06:39:59;;;;;;;0.25;0.20;;;3.50;94.60;;;;;;4115148;28;20054;-88
2020/12/11 06:42:00;;;;;;;0.35;0.30;;;3.60;94.60;;;;;;4079592;29;20055;-87
2020/12/11 06:44:22;;;;;;;0.30;0.30;;;3.60;94.60;;;;;;4111396;28;20125;-87
2020/12/11 06:46:25;;;;;;;2.58;0.50;;;3.70;94.60;;;;;;4114643;28;20048;-87
2020/12/11 06:48:26;;;;;;;1.70;1.60;;;3.70;94.80;;;;;;4114959;28;20050;-87
2020/12/11 06:50:30;;;;;;;0.47;0.25;;;3.70;94.80;;;;;;4083299;28;20047;-87
2020/12/11 06:52:34;;;;;;;0.28;0.28;;;3.70;94.80;;;;;;4099164;28;20122;-87
2020/12/11 06:54:36;;;;;;;0.55;0.55;;;3.80;94.90;;;;;;4099507;28;20142;-88
2020/12/11 06:56:43;;;;;;;1.52;1.00;;;3.70;94.90;;;;;;4130825;28;20133;-87
2020/12/11 06:58:44;;;;;;;0.50;0.50;;;3.80;94.90;;;;;;4082845;28;20063;-88
2020/12/11 07:00:52;;;;;;;0.95;0.93;;;3.80;95.00;;;;;;4099997;28;20053;-87
2020/12/11 07:03:12;;;;;;;0.28;0.22;;;3.80;95.00;;;;;;4102542;28;20050;-91
2020/12/11 07:05:14;;;;;;;1.67;0.65;;;3.90;95.20;;;;;;4127005;28;20081;-88
2020/12/11 07:07:15;;;;;;;0.30;0.30;;;3.90;95.00;;;;;;4118928;28;20066;-84
2020/12/11 07:09:16;;;;;;;1.17;0.73;;;4.00;95.30;;;;;;4133886;28;20062;-93
2020/12/11 07:11:18;;;;;;;0.20;0.20;;;4.00;95.40;;;;;;4133918;28;20023;-81
2020/12/11 07:13:19;;;;;;;0.20;0.20;;;4.10;95.50;;;;;;4128377;28;20478;-94
2020/12/11 07:15:20;;;;;;;1.05;0.20;;;4.20;95.50;;;;;;4123975;28;20058;-84
2020/12/11 07:17:25;;;;;;;0.70;0.60;;;4.20;95.60;;;;;;4103138;28;20107;-86
2020/12/11 07:19:34;;;;;;;2.30;1.27;;;4.30;95.70;;;;;;4148639;28;20073;-84
2020/12/11 07:21:37;;;;;;;0.22;0.20;;;4.50;95.40;;;;;;4129437;28;20057;-96
2020/12/11 07:23:38;;;;;;;0.40;0.40;;;4.60;95.30;;;;;;4107864;28;20138;-93
2020/12/11 07:25:39;;;;;;;0.20;0.20;;;4.60;95.30;;;;;;4118918;28;20387;-91
2020/12/11 07:27:41;;;;;;;0.30;0.30;;;4.70;95.00;;;;;;4102325;28;20053;-90
2020/12/11 07:29:49;;;;;;;0.20;0.20;;;4.80;94.90;;;;;;4116533;28;20054;-92
2020/12/11 07:31:50;;;;;;;0.57;0.30;;;4.80;94.80;;;;;;4104087;28;20515;-93
2020/12/11 07:33:52;;;;;;;0.43;0.43;;;4.80;94.70;;;;;;4103072;28;20188;-93
2020/12/11 07:35:53;;;;;;;0.45;0.45;;;4.90;94.80;;;;;;4117355;28;20063;-89
2020/12/11 07:37:56;;;;;;;0.20;0.20;;;5.00;94.60;;;;;;4118269;28;20138;-82
2020/12/11 07:39:57;;;;;;;1.27;0.68;;;5.00;94.60;;;;;;4118799;28;20027;-89
2020/12/11 07:42:03;;;;;;;0.35;0.35;;;5.10;94.50;;;;;;4128268;28;20054;-91
2020/12/11 07:44:07;;;;;;;0.75;0.75;;;5.10;94.50;;;;;;4101619;28;20535;-92
2020/12/11 07:46:08;;;;;;;0.10;0.10;;;5.20;94.60;;;;;;4120760;28;20133;-92
2020/12/11 07:48:10;;;;;;;0.17;0.17;;;5.30;94.60;;;;;;4101316;28;20047;-91
2020/12/11 07:50:11;;;;;;;0.80;0.55;;;5.30;94.50;;;;;;4118752;28;20114;-91
2020/12/11 07:52:22;;;;;;;0.20;0.20;;;5.40;94.50;;;;;;4118312;28;20114;-92
2020/12/11 07:54:23;;;;;;;0.20;0.20;;;5.40;94.40;;;;;;4116253;28;20050;-91
2020/12/11 07:56:29;;;;;;;0.13;0.13;;;5.50;94.40;;;;;;4117918;28;20059;-91
2020/12/11 07:58:30;;;;;;;0.20;0.20;;;5.50;94.60;;;;;;4119051;28;20060;-90
2020/12/11 08:00:36;;;;;;;0.30;0.30;;;5.60;94.20;;;;;;4118931;28;20130;-91
2020/12/11 08:02:38;;;;;;;0.10;0.10;;;5.70;94.00;;;;;;4101542;28;20126;-93
2020/12/11 08:04:39;;;;;;;0.73;0.40;;;5.80;94.20;;;;;;4118354;28;20503;-90
2020/12/11 08:06:40;;;;;;;0.90;0.57;;;5.80;94.20;;;;;;4102554;28;20466;-90
2020/12/11 08:08:41;;;;;;;0.20;0.20;;;5.90;94.10;;;;;;4117316;28;20134;-90
2020/12/11 08:10:43;;;;;;;0.20;0.20;;;5.90;94.20;;;;;;4101903;28;20054;-92
2020/12/11 08:12:45;;;;;;;0.20;0.20;;;6.00;94.20;;;;;;4118518;28;20051;-88
2020/12/11 08:14:46;;;;;;;0.20;0.20;;;6.10;94.70;;;;;;4101242;28;20057;-86
2020/12/11 08:16:48;;;;;;;0.20;0.20;;;6.10;94.80;;;;;;4091310;29;20050;-85
2020/12/11 08:18:50;;;;;;;0.15;0.15;;;6.10;95.40;;;;;;4119752;28;20027;-84
2020/12/11 08:20:53;;;;;;;0.20;0.20;;;6.10;95.30;;;;;;4120230;28;20058;-85
2020/12/11 08:22:54;;;;;;;0.57;0.38;;;6.10;95.50;;;;;;4134242;28;20051;-88
2020/12/11 08:24:55;;;;;;;1.33;0.95;;;6.10;95.70;;;;;;4135219;28;20031;-89
2020/12/11 08:26:56;;;;;;;0.30;0.30;;;6.10;96.00;;;;;;4130796;28;20663;-89
2020/12/11 08:29:08;;;;;;;0.20;0.20;;;6.10;96.50;;;;;;4101580;28;20054;-92
2020/12/11 08:31:13;;;;;;;0.20;0.20;;;6.10;96.40;;;;;;4094702;28;20138;-91
2020/12/11 08:33:14;;;;;;;;;;;6.10;96.90;;;;;;4116703;28;20179;-92
2020/12/11 08:35:16;;;;;;;0.20;0.20;;;6.00;97.10;;;;;;4119800;28;19926;-87
2020/12/11 08:37:33;;;;;;;0.25;0.25;;;6.10;97.10;;;;;;4098018;28;20067;-94
2020/12/11 08:39:35;;;;;;;0.10;0.10;;;6.10;97.10;;;;;;4095362;28;20066;-94
2020/12/11 08:41:42;;;;;;;0.55;0.20;;;6.10;97.20;;;;;;4105151;28;20047;-89
2020/12/11 08:43:46;;;;;;;0.10;0.10;;;6.10;97.20;;;;;;4117842;28;20052;-93
2020/12/11 08:50:22;;;;;;;0.10;0.10;;;6.10;98.10;;;;;;4104741;28;20074;-92
2020/12/11 08:52:23;;;;;;;0.15;0.15;;;6.10;98.20;;;;;;4106405;28;20039;-87
2020/12/11 08:54:27;;;;;;;0.10;0.10;;;6.10;98.50;;;;;;4120732;28;20046;-93
2020/12/11 08:56:29;;;;;;;0.30;0.30;;;6.10;98.60;;;;;;4119330;28;20046;-92
2020/12/11 08:58:30;;;;;;;0.15;0.13;;;6.10;98.70;;;;;;4130986;28;20121;-93
2020/12/11 09:00:31;;;;;;;0.10;0.10;;;6.10;98.50;;;;;;4116432;28;20047;-93
2020/12/11 09:02:32;;;;;;;0.25;0.25;;;6.10;98.60;;;;;;4116720;28;20537;-91
2020/12/11 09:04:34;;;;;;;0.10;0.10;;;6.10;98.80;;;;;;4116796;28;20065;-91
2020/12/11 09:06:35;;;;;;;0.30;0.30;;;6.10;99.10;;;;;;4119354;28;20141;-92
2020/12/11 09:08:37;;;;;;;0.20;0.20;;;6.00;99.50;;;;;;4103308;28;20053;-90
2020/12/11 09:10:38;;;;;;;0.30;0.20;;;6.00;99.70;;;;;;4100539;28;20054;-90
2020/12/11 09:12:41;;;;;;;0.10;0.10;;;6.00;99.40;;;;;;4085694;29;20056;-90
2020/12/11 09:14:43;;;;;;;0.10;0.10;;;6.00;99.10;;;;;;4097416;28;20059;-89
2020/12/11 09:16:44;;;;;;;0.10;0.10;;;6.00;98.30;;;;;;4103473;28;20466;-89
2020/12/11 09:18:46;;;;;;;0.15;0.15;;;5.90;98.50;;;;;;4092274;28;20055;-92
2020/12/11 09:20:47;;;;;;;0.20;0.20;;;5.90;98.50;;;;;;4117480;28;20054;-91
2020/12/11 09:22:49;;;;;;;0.20;0.20;;;5.80;98.60;;;;;;4117669;28;20485;-90
2020/12/11 09:24:50;;;;;;;0.15;0.15;;;5.70;99.30;;;;;;4115047;28;20047;-93
2020/12/11 09:26:51;;;;;;;0.20;0.20;;;5.70;99.30;;;;;;4102193;28;20082;-89
2020/12/11 09:29:01;;;;;;;0.30;0.20;;;5.60;99.40;;;;;;4109818;28;20140;-90
2020/12/11 09:31:02;;;;;;;0.17;0.17;;;5.50;99.30;;;;;;4113887;28;20065;-93
2020/12/11 09:33:09;;;;;;;0.10;0.10;;;5.50;99.50;;;;;;4109254;28;20117;-92
2020/12/11 09:35:10;;;;;;;0.82;0.20;;;5.50;99.50;;;;;;4113741;28;20049;-87
2020/12/11 09:37:11;;;;;;;0.43;0.20;;;5.40;99.30;;;;;;4116957;28;20066;-90
2020/12/11 09:39:14;;;;;;;1.40;1.08;;;5.40;99.40;;;;;;4116900;28;20057;-90
2020/12/11 09:41:17;;;;;;;0.20;0.20;;;5.40;99.30;;;;;;4097834;29;20062;-89
2020/12/11 09:45:26;;;;;;;0.10;0.10;;;5.30;99.50;;;;;;4114800;28;20058;-90
2020/12/11 09:49:48;;;;;;;0.85;0.65;;;5.20;99.30;;;;;;4128207;28;20078;-92
2020/12/11 09:56:00;;;;;;;0.17;0.17;;;5.10;99.40;;;;;;4116271;28;20392;-92
2020/12/11 09:58:02;;;;;;;0.10;0.10;;;5.00;99.70;;;;;;4087033;28;20147;-94
2020/12/11 10:00:05;;;;;;;0.20;0.20;;;5.10;99.60;;;;;;4110155;28;20521;-93
2020/12/11 10:04:09;;;;;;;0.10;0.10;;;5.00;99.20;;;;;;4131020;28;20046;-95
2020/12/11 10:06:10;;;;;;;0.13;0.13;;;5.00;99.50;;;;;;4098069;28;20047;-89
2020/12/11 10:08:12;;;;;;;0.75;0.75;;;5.00;99.60;;;;;;4114372;28;20047;-96
2020/12/11 10:10:13;;;;;;;0.10;0.10;;;5.00;99.60;;;;;;4101214;28;20133;-95
2020/12/11 10:12:16;;;;;;;0.10;0.10;;;5.00;99.60;;;;;;4118543;28;20061;-92
2020/12/11 10:16:19;;;;;;;0.30;0.30;;;5.00;99.50;;;;;;4130397;28;20138;-89
2020/12/11 10:18:21;;;;;;;2.28;0.30;;;5.00;99.30;;;;;;4116294;28;20059;-90
2020/12/11 10:20:23;;;;;;;0.20;0.20;;;5.00;99.40;;;;;;4109692;28;20048;-90
2020/12/11 10:22:24;;;;;;;0.20;0.20;;;5.00;99.10;;;;;;4118625;28;20043;-92
2020/12/11 10:24:25;;;;;;;0.13;0.13;;;5.00;99.40;;;;;;4105184;28;20135;-90
2020/12/11 10:26:26;;;;;;;0.10;0.10;;;5.00;99.40;;;;;;4119586;28;20526;-87
2020/12/11 10:28:28;;;;;;;0.85;0.32;;;5.00;99.00;;;;;;4132325;28;20046;-92
2020/12/11 10:30:29;;;;;;;0.20;0.20;;;5.10;99.10;;;;;;4120460;28;20118;-90
2020/12/11 10:32:30;;;;;;;0.10;0.10;;;5.10;98.80;;;;;;4090767;28;20053;-90
2020/12/11 10:34:35;;;;;;;0.10;0.10;;;5.00;99.00;;;;;;4116467;28;20423;-94
2020/12/11 10:36:36;;;;;;;0.20;0.20;;;5.10;98.90;;;;;;4115715;28;20074;-88
2020/12/11 10:38:38;;;;;;;0.20;0.20;;;5.10;98.90;;;;;;4128138;28;20574;-86
2020/12/11 10:40:39;;;;;;;0.20;0.20;;;5.00;98.80;;;;;;4113965;28;20054;-94
2020/12/11 10:42:40;;;;;;;1.55;0.40;;;5.10;98.60;;;;;;4100698;28;20138;-92
2020/12/11 10:44:41;;;;;;;0.10;0.10;;;5.10;98.70;;;;;;4123679;28;20133;-91
2020/12/11 10:46:43;;;;;;;0.20;0.20;;;5.10;98.70;;;;;;4097854;28;20050;-92
2020/12/11 10:48:44;;;;;;;0.20;0.20;;;5.20;98.70;;;;;;4115781;28;20050;-93
2020/12/11 10:50:46;;;;;;;0.20;0.20;;;5.20;98.70;;;;;;4117298;28;20130;-94
2020/12/11 10:52:47;;;;;;;0.55;0.20;;;5.20;98.70;;;;;;4130981;28;20106;-93
2020/12/11 10:54:52;;;;;;;0.28;0.28;;;5.30;98.30;;;;;;4132088;28;20051;-94
2020/12/11 10:56:57;;;;;;;0.20;0.20;;;5.30;98.70;;;;;;4129820;28;20510;-91
2020/12/11 10:58:58;;;;;;;0.10;0.10;;;5.40;98.30;;;;;;4131782;28;20049;-95
2020/12/11 11:01:01;;;;;;;0.50;0.43;;;5.40;98.10;;;;;;4101673;28;20047;-94
2020/12/11 11:03:03;;;;;;;0.20;0.20;;;5.50;98.50;;;;;;4099309;28;20050;-92
2020/12/11 11:05:04;;;;;;;0.35;0.20;;;5.50;98.00;;;;;;4115006;28;20611;-93